Central Wisconsin Airport
KCWA : now visible

Airfield :











YOU CAN JOIN US ON...

 
LOGIN :

Register | Disclaimer

   EN    FR    IT 

 









Legend :    VFR   Marginal VFR   IFR   Intensive IFR   Very Intensive IFR
Visi :
Ceiling :
>= 8 km
>= 3000ft
5 to 8 km
1000 to 3000 ft
1500m to 5 km
500 to 1000 ft
800 to 1500m
200 to 500 ft
< 800m
< 200 ft
Symbols :   Thunderstorms  Fog  Heavy snow  Heavy precipitations  Wind > 20 kt






- Airport Elevation : 1277 ft


KCWA - Central Wisconsin

CURRENT METAR :
  • 280047Z 22003KT 10SM CLR 19/10 A2986

EXPIRED METARs :
  • 272347Z 00000KT 10SM CLR 21/08 A2987
  • 272247Z 00000KT 10SM FEW060 21/08 A2987
  • 272153Z 29007KT 10SM SCT060 21/09 A2987

TAF KCWA
Valid from the 28 at 00:00 until the 29 at 00:00 UTC


272334Z 2800/2824 28005KT P6SM SKC
FM280100 19002KT P6SM SKC
FM281600 16009G18KT P6SM -SHRA BKN090
FM282100 16012G20KT P6SM BKN050
KZMP FIR / North America



MET'MAP, your aeronautical weather chart ! - Copyright ORBIFLY December 2007 - Disclaimer

ORBIFLY MET'MAP TEAM :

Programming & Development : Alexandra Zaïnal
Original concept : Baudouin d'Aumeries
Technical & hardware support : Manuel Goepfert
Assistance : Marc-Olivier Méhu

Contact : metmap@orbifly.com




SOURCES & CREDITS :

   NOAA       Earth
Advisory